createdAt,value
2022-08-27T00:02:35.551Z,30.10
2022-08-27T00:07:37.675Z,31.83
2022-08-27T00:12:37.813Z,40.45
2022-08-27T00:17:36.605Z,28.27
2022-08-27T00:22:37.995Z,42.25
2022-08-27T00:27:43.177Z,52.47
2022-08-27T00:32:43.074Z,39.17
2022-08-27T00:37:41.881Z,35.58
2022-08-27T00:42:42.627Z,43.47
2022-08-27T00:47:50.642Z,39.03
2022-08-27T00:52:55.767Z,43.30
2022-08-27T00:58:24.302Z,43.38
2022-08-27T01:03:23.061Z,24.65
2022-08-27T01:08:23.908Z,41.20
2022-08-27T01:13:54.434Z,36.30
2022-08-27T01:18:46.755Z,33.35
2022-08-27T01:24:23.193Z,39.50
2022-08-27T01:29:24.700Z,31.85
2022-08-27T01:34:27.626Z,37.33
2022-08-27T01:39:27.224Z,40.22
2022-08-27T01:44:31.376Z,43.75
2022-08-27T01:49:31.472Z,32.45
2022-08-27T01:54:31.834Z,47.95
2022-08-27T01:59:39.383Z,43.10
2022-08-27T02:04:40.352Z,41.47
2022-08-27T02:09:43.246Z,41.95
2022-08-27T02:14:44.765Z,49.67
2022-08-27T02:19:45.525Z,45.55
2022-08-27T02:24:44.888Z,47.20
2022-08-27T02:29:44.030Z,29.85
2022-08-27T02:34:44.749Z,47.42
2022-08-27T02:39:46.711Z,40.97
2022-08-27T02:44:45.333Z,35.60
2022-08-27T02:49:48.112Z,38.33
2022-08-27T02:54:52.406Z,40.05
2022-08-27T02:59:53.812Z,36.30
2022-08-27T03:04:54.845Z,40.95
2022-08-27T03:09:57.077Z,52.92
2022-08-27T03:14:56.606Z,41.25
2022-08-27T03:19:55.733Z,40.10
2022-08-27T03:24:56.713Z,36.08
2022-08-27T03:29:59.585Z,49.17
2022-08-27T03:35:03.232Z,36.88
2022-08-27T03:40:06.046Z,35.85
2022-08-27T03:45:06.021Z,36.28
2022-08-27T03:50:11.731Z,31.35
2022-08-27T03:55:15.493Z,33.38
2022-08-27T04:00:14.485Z,45.45
2022-08-27T04:05:23.523Z,40.45
2022-08-27T04:10:24.901Z,43.55
2022-08-27T04:15:29.017Z,32.00
2022-08-27T04:20:48.456Z,34.35
2022-08-27T04:25:50.689Z,32.30
2022-08-27T04:30:52.506Z,47.90
2022-08-27T04:36:11.183Z,43.78
2022-08-27T04:41:35.223Z,36.25
2022-08-27T04:46:37.928Z,24.23
2022-08-27T04:51:37.065Z,36.67
2022-08-27T04:56:44.672Z,25.48
2022-08-27T05:01:44.936Z,28.85
2022-08-27T05:06:46.195Z,36.70
2022-08-27T05:11:47.174Z,35.15
2022-08-27T05:16:47.804Z,26.35
2022-08-27T05:21:53.541Z,27.20
2022-08-27T05:26:53.864Z,21.10
2022-08-27T05:31:59.823Z,18.50
2022-08-27T05:37:00.945Z,27.77
2022-08-27T05:42:00.338Z,29.02
2022-08-27T05:47:02.188Z,45.92
2022-08-27T05:52:07.925Z,43.67
2022-08-27T05:57:12.736Z,45.85
2022-08-27T06:02:11.909Z,34.30
2022-08-27T06:07:11.097Z,33.10
2022-08-27T06:12:09.855Z,44.38
2022-08-27T06:17:11.292Z,41.33
2022-08-27T06:22:10.944Z,28.27
2022-08-27T06:27:15.272Z,35.08
2022-08-27T06:32:15.550Z,26.15
2022-08-27T06:37:13.409Z,34.00
2022-08-27T06:42:13.366Z,35.80
2022-08-27T06:47:12.441Z,29.23
2022-08-27T06:52:11.693Z,39.90
2022-08-27T06:57:11.005Z,42.03
2022-08-27T07:02:09.581Z,54.35
2022-08-27T07:07:08.823Z,41.40
2022-08-27T07:12:07.379Z,51.67
2022-08-27T07:17:10.881Z,34.60
2022-08-27T07:22:15.684Z,42.05
2022-08-27T07:27:14.506Z,32.47
2022-08-27T07:32:13.070Z,48.95
2022-08-27T07:37:14.753Z,60.95
2022-08-27T07:42:33.079Z,44.90
2022-08-27T07:47:32.192Z,39.40
2022-08-27T07:52:34.599Z,38.67
2022-08-27T07:57:36.345Z,51.97
2022-08-27T08:02:36.247Z,41.83
2022-08-27T08:07:35.383Z,44.92
2022-08-27T08:12:36.165Z,50.47
2022-08-27T08:17:35.969Z,48.22
2022-08-27T08:22:35.287Z,54.83
2022-08-27T08:27:36.083Z,50.38
2022-08-27T08:32:37.657Z,49.20
2022-08-27T08:37:36.417Z,37.88
2022-08-27T08:42:50.576Z,43.15
2022-08-27T08:47:52.817Z,38.65
2022-08-27T08:52:56.166Z,43.58
2022-08-27T08:58:00.466Z,43.65
2022-08-27T09:02:59.414Z,32.97
2022-08-27T09:08:21.777Z,42.42
2022-08-27T09:13:28.843Z,45.97
2022-08-27T09:18:28.143Z,37.20
2022-08-27T09:23:34.085Z,34.45
2022-08-27T09:29:00.964Z,24.00
2022-08-27T09:34:00.264Z,39.10
2022-08-27T09:39:02.669Z,37.50
2022-08-27T09:44:03.912Z,38.33
2022-08-27T09:49:13.010Z,44.88
2022-08-27T09:54:11.899Z,41.13
2022-08-27T09:59:41.729Z,39.40
2022-08-27T10:04:50.363Z,37.88
2022-08-27T10:10:11.202Z,46.25
2022-08-27T10:15:09.831Z,45.72
2022-08-27T10:20:32.953Z,51.22
2022-08-27T10:25:59.073Z,59.08
2022-08-27T10:31:26.357Z,58.28
2022-08-27T10:36:38.179Z,34.35
2022-08-27T10:41:47.536Z,50.85
2022-08-27T10:47:07.244Z,40.42
2022-08-27T10:52:13.091Z,47.05
2022-08-27T10:57:54.289Z,61.15
2022-08-27T11:03:08.424Z,58.70
2022-08-27T11:08:19.313Z,50.50
2022-08-27T11:13:33.996Z,56.88
2022-08-27T11:18:44.617Z,53.40
2022-08-27T11:23:54.030Z,56.20
2022-08-27T11:29:03.015Z,51.70
2022-08-27T11:34:55.680Z,54.88
2022-08-27T11:39:59.286Z,54.38
2022-08-27T11:45:07.964Z,52.13
2022-08-27T11:50:23.955Z,50.88
2022-08-27T11:55:24.276Z,68.32
2022-08-27T12:00:29.500Z,67.80
2022-08-27T12:06:06.241Z,47.42
2022-08-27T12:11:31.834Z,53.67
2022-08-27T12:16:44.983Z,51.53
2022-08-27T12:21:50.802Z,53.75
2022-08-27T12:27:01.753Z,50.22
2022-08-27T12:32:25.156Z,60.55
2022-08-27T12:37:57.641Z,63.08
2022-08-27T12:43:29.762Z,47.00
2022-08-27T12:48:36.392Z,57.17
2022-08-27T12:53:55.018Z,53.40
2022-08-27T12:59:01.004Z,48.10
2022-08-27T13:04:11.609Z,65.57
2022-08-27T13:09:14.588Z,60.22
2022-08-27T13:14:17.217Z,62.85
2022-08-27T13:19:38.849Z,57.88
2022-08-27T13:24:56.828Z,40.53
2022-08-27T13:30:01.995Z,64.45
2022-08-27T13:35:01.316Z,51.58
2022-08-27T13:40:00.560Z,54.85
2022-08-27T13:45:05.615Z,49.00
2022-08-27T13:50:24.771Z,63.45
2022-08-27T13:55:24.006Z,61.92
2022-08-27T14:00:34.973Z,61.40
2022-08-27T14:05:41.912Z,68.53
2022-08-27T14:10:45.483Z,55.22
2022-08-27T14:15:51.852Z,44.88
2022-08-27T14:20:51.497Z,66.13
2022-08-27T14:25:50.642Z,60.65
2022-08-27T14:30:53.183Z,42.33
2022-08-27T14:35:55.107Z,50.80
2022-08-27T14:40:54.695Z,53.08
2022-08-27T14:45:55.311Z,51.63
2022-08-27T14:50:58.351Z,53.65
2022-08-27T14:55:59.170Z,49.05
2022-08-27T15:01:02.014Z,51.50
2022-08-27T15:06:04.068Z,59.50
2022-08-27T15:11:03.739Z,56.90
2022-08-27T15:16:06.864Z,50.78
2022-08-27T15:21:08.178Z,47.50
2022-08-27T15:26:10.363Z,50.47
2022-08-27T15:31:11.404Z,51.35
2022-08-27T15:36:09.929Z,49.45
2022-08-27T15:41:10.480Z,64.78
2022-08-27T15:46:13.109Z,61.38
2022-08-27T15:51:14.591Z,50.67
2022-08-27T15:56:17.978Z,59.15
2022-08-27T16:01:26.613Z,65.55
2022-08-27T16:06:24.446Z,57.25
2022-08-27T16:11:23.863Z,52.03
2022-08-27T16:16:25.659Z,60.78
2022-08-27T16:21:24.164Z,56.93
2022-08-27T16:26:26.148Z,61.10
2022-08-27T16:31:24.782Z,64.33
2022-08-27T16:36:23.836Z,47.22
2022-08-27T16:41:23.439Z,69.68
2022-08-27T16:46:21.051Z,57.97
2022-08-27T16:51:27.824Z,53.35
2022-08-27T16:56:28.383Z,43.85
2022-08-27T17:01:28.462Z,66.07
2022-08-27T17:06:27.586Z,45.70
2022-08-27T17:11:29.202Z,46.40
2022-08-27T17:16:33.829Z,67.07
2022-08-27T17:21:35.017Z,58.97
2022-08-27T17:26:38.874Z,66.03
2022-08-27T17:31:47.708Z,59.58
2022-08-27T17:36:56.625Z,62.63
2022-08-27T17:41:56.246Z,61.43
2022-08-27T17:47:07.380Z,56.78
2022-08-27T17:52:21.116Z,65.88
2022-08-27T17:57:37.415Z,61.10
2022-08-27T18:02:53.327Z,60.67
2022-08-27T18:13:45.628Z,66.85
2022-08-27T18:18:57.324Z,71.60
2022-08-27T18:29:38.776Z,59.88
2022-08-27T18:34:47.759Z,52.38
2022-08-27T18:40:16.259Z,55.30
2022-08-27T18:45:31.529Z,61.53
2022-08-27T18:50:37.406Z,88.50
2022-08-27T18:55:46.609Z,68.85
2022-08-27T19:01:11.800Z,55.28
2022-08-27T19:06:13.716Z,63.38
2022-08-27T19:11:22.068Z,49.35
2022-08-27T19:16:34.697Z,63.95
2022-08-27T19:21:41.235Z,50.05
2022-08-27T19:26:41.068Z,51.92
2022-08-27T19:31:49.725Z,62.17
2022-08-27T19:36:48.048Z,55.65
2022-08-27T19:41:47.375Z,52.10
2022-08-27T19:46:46.053Z,65.22
2022-08-27T19:51:44.269Z,57.83
2022-08-27T19:56:42.971Z,60.67
2022-08-27T20:01:46.899Z,52.70
2022-08-27T20:06:46.730Z,55.70
2022-08-27T20:11:51.336Z,53.58
2022-08-27T20:16:49.674Z,63.30
2022-08-27T20:21:48.286Z,56.85
2022-08-27T20:26:46.808Z,46.33
2022-08-27T20:31:44.662Z,57.15
2022-08-27T20:36:45.352Z,70.03
2022-08-27T20:41:46.379Z,58.17
2022-08-27T20:46:51.035Z,72.13
2022-08-27T20:52:02.238Z,58.33
2022-08-27T20:57:03.041Z,55.30
2022-08-27T21:02:07.194Z,51.03
2022-08-27T21:07:06.711Z,54.13
2022-08-27T21:12:04.573Z,43.22
2022-08-27T21:17:03.809Z,53.60
2022-08-27T21:27:06.296Z,51.53
2022-08-27T21:32:07.560Z,53.42
2022-08-27T21:37:06.037Z,66.57
2022-08-27T21:42:04.222Z,63.45
2022-08-27T21:47:04.758Z,37.63
2022-08-27T21:52:04.882Z,69.60
2022-08-27T21:57:04.515Z,50.30
2022-08-27T22:02:05.182Z,46.72
2022-08-27T22:07:13.432Z,64.38
2022-08-27T22:12:12.211Z,61.55
2022-08-27T22:17:15.956Z,45.97
2022-08-27T22:22:14.821Z,53.75
2022-08-27T22:27:13.835Z,47.72
2022-08-27T22:32:12.405Z,61.00
2022-08-27T22:37:10.932Z,49.53
2022-08-27T22:42:09.380Z,55.83
2022-08-27T22:47:12.242Z,48.07
2022-08-27T22:52:10.824Z,51.00
2022-08-27T22:57:10.634Z,53.80
2022-08-27T23:02:10.619Z,53.47
2022-08-27T23:07:09.199Z,40.22
2022-08-27T23:12:09.374Z,51.33
2022-08-27T23:17:07.650Z,54.10
2022-08-27T23:22:06.602Z,57.47
2022-08-27T23:27:25.020Z,54.42
2022-08-27T23:32:23.723Z,56.25
2022-08-27T23:37:24.075Z,48.25
2022-08-27T23:42:21.918Z,49.97
2022-08-27T23:47:20.212Z,44.95
2022-08-27T23:52:18.428Z,46.42
2022-08-27T23:57:16.608Z,57.60
